Time;durP1;ratioP1;P1;durP2;ratioP2;P2;SDS_P1;SDS_P2;PMS_P1;PMS_P2;Temp;Humidity;BMP_temperature;BMP_pressure;BME280_temperature;BME280_humidity;BME280_pressure;Samples;Min_cycle;Max_cycle;Signal;HPM_P1;HPM_P2
2022/09/30 00:01:56;;;;;;;3.47;3.17;;;;;;;14.19;100.00;99069.29;1769474;78;21836;-46
2022/09/30 00:04:23;;;;;;;3.60;3.40;;;;;;;14.20;100.00;99066.96;1767632;78;21036;-46
2022/09/30 00:06:51;;;;;;;3.75;2.67;;;;;;;14.22;100.00;99062.27;1772873;78;21073;-48
2022/09/30 00:09:17;;;;;;;2.87;2.67;;;;;;;14.22;100.00;99065.84;1768132;78;21041;-46
2022/09/30 00:11:45;;;;;;;4.47;2.37;;;;;;;14.25;100.00;99062.92;1767145;78;21097;-46
2022/09/30 00:14:16;;;;;;;4.33;2.37;;;;;;;14.26;100.00;99067.36;1766292;78;22493;-48
2022/09/30 00:16:44;;;;;;;4.72;2.77;;;;;;;14.29;100.00;99064.41;1767213;78;21045;-48
2022/09/30 00:19:10;;;;;;;3.90;2.80;;;;;;;14.31;100.00;99067.88;1766175;78;21074;-48
2022/09/30 00:21:37;;;;;;;7.75;2.92;;;;;;;14.33;100.00;99070.47;1764617;78;21041;-47
2022/09/30 00:24:04;;;;;;;4.15;2.62;;;;;;;14.34;100.00;99074.43;1766911;78;21050;-47
2022/09/30 00:26:31;;;;;;;4.65;3.35;;;;;;;14.36;100.00;99072.97;1767309;78;21824;-45
2022/09/30 00:28:58;;;;;;;7.15;4.92;;;;;;;14.37;100.00;99080.11;1767487;78;20968;-46
2022/09/30 00:31:31;;;;;;;4.50;4.10;;;;;;;14.35;100.00;99083.41;1767369;78;21651;-46
2022/09/30 00:34:06;;;;;;;4.67;4.05;;;;;;;14.33;100.00;99087.58;1762708;78;21112;-46
2022/09/30 00:36:47;;;;;;;4.75;4.22;;;;;;;14.33;100.00;99089.42;1764364;78;21085;-47
2022/09/30 00:39:20;;;;;;;5.87;5.00;;;;;;;14.31;100.00;99089.53;1768053;78;23169;-47
2022/09/30 00:41:49;;;;;;;4.33;3.83;;;;;;;14.30;100.00;99089.16;1774488;78;21090;-48
2022/09/30 00:44:55;;;;;;;4.95;4.42;;;;;;;14.29;100.00;99094.70;1763967;78;21066;-45
2022/09/30 00:47:45;;;;;;;5.08;4.72;;;;;;;14.27;100.00;99097.52;1768303;78;21116;-45
2022/09/30 00:50:23;;;;;;;4.85;4.40;;;;;;;14.26;100.00;99099.84;1769822;78;21501;-45
2022/09/30 00:53:08;;;;;;;3.67;3.08;;;;;;;14.26;100.00;99103.91;1765714;78;22564;-45
2022/09/30 00:55:49;;;;;;;7.55;4.22;;;;;;;14.26;100.00;99095.78;1766432;78;21928;-48
2022/09/30 00:58:36;;;;;;;4.33;4.00;;;;;;;14.26;100.00;99094.44;1762905;78;21094;-47
2022/09/30 01:01:02;;;;;;;4.80;3.22;;;;;;;14.25;100.00;99094.55;1763859;78;22314;-47
2022/09/30 01:03:34;;;;;;;3.70;2.98;;;;;;;14.25;100.00;99090.48;1766361;80;21078;-45
2022/09/30 01:06:00;;;;;;;4.67;2.22;;;;;;;14.24;100.00;99084.20;1767699;78;21778;-45
2022/09/30 01:08:27;;;;;;;2.75;2.52;;;;;;;14.26;100.00;99089.51;1772801;78;21097;-46
2022/09/30 01:10:53;;;;;;;2.10;1.80;;;;;;;14.27;100.00;99089.89;1766350;78;21090;-46
2022/09/30 01:13:19;;;;;;;1.60;1.50;;;;;;;14.28;100.00;99091.13;1766380;78;21071;-46
2022/09/30 01:16:21;;;;;;;2.27;1.98;;;;;;;14.30;100.00;99089.64;1766831;78;22230;-45
2022/09/30 01:19:08;;;;;;;2.55;1.60;;;;;;;14.32;100.00;99095.33;1774780;80;21820;-45
2022/09/30 01:21:45;;;;;;;3.65;1.10;;;;;;;14.35;100.00;99097.82;1762944;78;21090;-47
2022/09/30 01:24:35;;;;;;;2.02;1.20;;;;;;;14.38;100.00;99104.83;1768867;78;21050;-45
2022/09/30 01:27:35;;;;;;;3.47;1.02;;;;;;;14.42;100.00;99106.38;1770370;78;21552;-48
2022/09/30 01:30:06;;;;;;;2.10;1.20;;;;;;;14.47;100.00;99105.53;1764178;78;21046;-46
2022/09/30 01:33:05;;;;;;;2.70;1.10;;;;;;;14.50;100.00;99098.55;1744338;78;21897;-44
2022/09/30 01:36:06;;;;;;;1.40;0.90;;;;;;;14.52;100.00;99094.37;1765567;78;21264;-46
2022/09/30 01:38:59;;;;;;;1.47;0.98;;;;;;;14.53;100.00;99101.53;1767538;78;22252;-48
2022/09/30 01:41:34;;;;;;;2.22;0.98;;;;;;;14.54;100.00;99109.55;1769599;78;21027;-46
2022/09/30 01:44:03;;;;;;;;;;;;;;;14.55;100.00;99115.30;1774296;78;21192;-48
2022/09/30 01:46:36;;;;;;;1.30;0.90;;;;;;;14.54;100.00;99110.03;1770248;78;21829;-45
2022/09/30 01:49:21;;;;;;;1.87;1.00;;;;;;;14.53;100.00;99105.10;1769416;78;21494;-48
2022/09/30 01:52:27;;;;;;;1.35;0.95;;;;;;;14.53;100.00;99117.29;1773265;79;21031;-47
2022/09/30 01:55:14;;;;;;;2.12;0.82;;;;;;;14.53;100.00;99108.30;1768326;78;21065;-47
2022/09/30 01:57:46;;;;;;;1.65;0.80;;;;;;;14.50;100.00;99106.67;1770557;78;21034;-47
2022/09/30 02:00:14;;;;;;;2.15;1.00;;;;;;;14.49;100.00;99108.13;1769415;78;21783;-47
2022/09/30 02:03:00;;;;;;;1.87;1.00;;;;;;;14.47;100.00;99104.67;1767360;78;22508;-47
2022/09/30 02:05:35;;;;;;;2.12;1.05;;;;;;;14.45;100.00;99106.65;1771502;78;21011;-47
2022/09/30 02:08:20;;;;;;;2.22;1.40;;;;;;;14.43;100.00;99109.47;1769753;78;20983;-47
2022/09/30 02:10:55;;;;;;;2.75;1.30;;;;;;;14.40;100.00;99111.03;1771579;78;21019;-47
2022/09/30 02:13:30;;;;;;;2.02;1.82;;;;;;;14.36;100.00;99109.52;1774881;78;21802;-47
2022/09/30 02:16:00;;;;;;;1.52;1.42;;;;;;;14.33;100.00;99109.73;1773477;78;21003;-47
2022/09/30 02:18:32;;;;;;;2.42;1.95;;;;;;;14.28;100.00;99116.85;1750018;78;20971;-47
2022/09/30 02:21:01;;;;;;;3.65;1.62;;;;;;;14.24;100.00;99116.69;1771133;80;20975;-47
2022/09/30 02:23:31;;;;;;;2.02;1.92;;;;;;;14.20;100.00;99119.25;1770176;78;21513;-47
2022/09/30 02:26:09;;;;;;;3.67;1.80;;;;;;;14.16;100.00;99121.80;1770332;78;21827;-47
2022/09/30 02:28:40;;;;;;;2.58;1.65;;;;;;;14.12;100.00;99118.08;1771443;78;21014;-47
2022/09/30 02:31:07;;;;;;;3.62;2.33;;;;;;;14.07;100.00;99114.83;1744807;78;21011;-47
2022/09/30 02:33:38;;;;;;;3.02;1.80;;;;;;;14.01;100.00;99116.15;1769292;78;20998;-47
2022/09/30 02:36:08;;;;;;;1.77;1.55;;;;;;;13.98;100.00;99119.06;1770788;78;21039;-47
2022/09/30 02:38:40;;;;;;;1.80;1.70;;;;;;;13.94;100.00;99121.62;1741750;78;22454;-48
2022/09/30 02:41:20;;;;;;;1.65;1.00;;;;;;;13.90;100.00;99119.62;1766504;78;21061;-47
2022/09/30 02:43:48;;;;;;;4.33;2.08;;;;;;;13.88;100.00;99118.85;1768865;78;21116;-47
2022/09/30 02:46:38;;;;;;;2.15;1.95;;;;;;;13.85;100.00;99116.87;1768548;78;21050;-48
2022/09/30 02:49:33;;;;;;;5.25;2.17;;;;;;;13.82;100.00;99109.83;1770563;78;21042;-47
2022/09/30 02:52:24;;;;;;;;;;;;;;;13.78;100.00;99116.94;1771495;78;21905;-47
2022/09/30 02:55:11;;;;;;;2.70;2.50;;;;;;;13.72;100.00;99121.41;1766220;78;20674;-47
2022/09/30 02:58:16;;;;;;;2.67;2.45;;;;;;;13.64;100.00;99122.83;1765494;78;21035;-47
2022/09/30 03:00:42;;;;;;;3.67;1.70;;;;;;;13.57;100.00;99121.53;1768440;78;21715;-47
2022/09/30 03:03:27;;;;;;;4.22;1.35;;;;;;;13.53;100.00;99123.19;1766842;78;21046;-47
2022/09/30 03:05:53;;;;;;;2.60;1.60;;;;;;;13.50;100.00;99123.42;1765117;78;23711;-47
2022/09/30 03:08:20;;;;;;;3.55;1.32;;;;;;;13.48;100.00;99121.31;1767510;78;21777;-47
2022/09/30 03:10:49;;;;;;;4.37;1.42;;;;;;;13.48;100.00;99127.58;1764671;78;21046;-47
2022/09/30 03:13:33;;;;;;;2.25;1.70;;;;;;;13.50;100.00;99131.05;1769084;78;21059;-47
2022/09/30 03:16:45;;;;;;;3.50;1.65;;;;;;;13.52;100.00;99134.52;1768596;78;21161;-47
2022/09/30 03:19:45;;;;;;;2.15;1.62;;;;;;;13.55;100.00;99136.98;1770914;78;21811;-47
2022/09/30 03:22:51;;;;;;;2.52;1.47;;;;;;;13.58;100.00;99140.84;1719293;78;21030;-47
2022/09/30 03:25:30;;;;;;;2.37;1.90;;;;;;;13.61;100.00;99137.91;1764177;78;21580;-48
2022/09/30 03:28:26;;;;;;;8.78;3.33;;;;;;;13.66;100.00;99140.78;1768761;78;21533;-47
2022/09/30 03:31:16;;;;;;;3.55;2.58;;;;;;;13.72;100.00;99137.64;1766371;78;21038;-47
2022/09/30 03:34:04;;;;;;;3.77;3.47;;;;;;;13.81;100.00;99139.69;1766140;78;21876;-47
2022/09/30 03:36:59;;;;;;;6.00;3.00;;;;;;;13.92;100.00;99143.86;1767451;78;21077;-47
2022/09/30 03:39:37;;;;;;;3.02;2.62;;;;;;;14.02;100.00;99144.94;1765939;78;21647;-47
2022/09/30 03:42:27;;;;;;;4.10;3.80;;;;;;;14.10;100.00;99147.95;1770592;79;21148;-47
2022/09/30 03:45:14;;;;;;;4.33;3.90;;;;;;;14.17;100.00;99151.08;1740107;80;21109;-47
2022/09/30 03:47:44;;;;;;;3.92;3.17;;;;;;;14.24;100.00;99149.66;1758098;80;21947;-48
2022/09/30 03:50:14;;;;;;;4.00;2.50;;;;;;;14.29;100.00;99156.45;1764935;80;21077;-47
2022/09/30 03:52:40;;;;;;;2.67;2.42;;;;;;;14.32;100.00;99160.30;1764293;80;21106;-48
2022/09/30 03:55:10;;;;;;;3.12;2.72;;;;;;;14.36;100.00;99160.47;1769599;78;21108;-48
2022/09/30 03:57:35;;;;;;;3.95;3.65;;;;;;;14.41;100.00;99169.63;1768955;78;21058;-48
2022/09/30 04:04:20;;;;;;;3.25;3.05;;;;;;;14.52;100.00;99171.55;1788603;78;28685;-46
2022/09/30 04:06:47;;;;;;;4.58;3.40;;;;;;;14.54;98.52;99183.16;1765635;78;21041;-48
2022/09/30 04:09:14;;;;;;;2.83;2.65;;;;;;;14.57;99.33;99189.67;1762651;78;23340;-47
2022/09/30 04:11:42;;;;;;;5.17;3.45;;;;;;;14.61;99.89;99193.91;1763616;79;21106;-47
2022/09/30 04:14:09;;;;;;;3.05;2.77;;;;;;;14.63;100.00;99193.31;1764701;79;21084;-46
2022/09/30 04:16:35;;;;;;;2.65;2.55;;;;;;;14.65;100.00;99190.84;1763596;79;21039;-48
2022/09/30 04:19:02;;;;;;;3.25;2.95;;;;;;;14.67;100.00;99191.60;1770344;79;21053;-46
2022/09/30 04:21:28;;;;;;;3.50;3.20;;;;;;;14.71;100.00;99189.55;1763024;79;21845;-46
2022/09/30 04:23:55;;;;;;;3.42;3.22;;;;;;;14.75;100.00;99193.74;1771910;79;21129;-46
2022/09/30 04:26:21;;;;;;;4.15;3.75;;;;;;;14.79;100.00;99197.10;1765523;78;21093;-47
2022/09/30 04:28:48;;;;;;;3.55;3.30;;;;;;;14.82;100.00;99189.59;1768060;79;21552;-46
2022/09/30 04:31:16;;;;;;;2.98;2.87;;;;;;;14.84;100.00;99198.97;1770684;78;21140;-46
2022/09/30 04:33:44;;;;;;;2.87;2.67;;;;;;;14.86;100.00;99196.53;1760200;79;21835;-46
2022/09/30 04:36:10;;;;;;;3.92;3.72;;;;;;;14.89;100.00;99202.19;1765122;79;21084;-46
2022/09/30 04:38:36;;;;;;;3.47;3.27;;;;;;;14.92;100.00;99198.77;1766923;78;21041;-45
2022/09/30 04:41:04;;;;;;;3.10;2.90;;;;;;;14.95;100.00;99197.20;1760926;79;21127;-46
2022/09/30 04:43:30;;;;;;;3.20;3.00;;;;;;;14.96;100.00;99199.42;1765639;79;21041;-45
2022/09/30 04:45:57;;;;;;;4.28;3.42;;;;;;;14.98;100.00;99201.50;1769497;79;21839;-45
2022/09/30 04:48:23;;;;;;;3.35;3.15;;;;;;;15.00;100.00;99209.91;1766623;79;21527;-46
2022/09/30 04:50:51;;;;;;;3.20;3.00;;;;;;;15.03;100.00;99208.81;1766317;79;21089;-45
2022/09/30 04:53:18;;;;;;;4.30;3.90;;;;;;;15.06;100.00;99212.14;1769487;79;21056;-46
2022/09/30 04:55:44;;;;;;;4.30;4.00;;;;;;;15.09;100.00;99223.25;1706244;81;21073;-47
2022/09/30 04:58:11;;;;;;;4.15;3.87;;;;;;;15.12;100.00;99218.97;1721516;82;21898;-47
2022/09/30 05:00:38;;;;;;;3.62;3.33;;;;;;;15.14;100.00;99223.27;1717665;82;21099;-46
2022/09/30 05:03:06;;;;;;;3.70;3.33;;;;;;;15.18;100.00;99217.63;1712821;82;21002;-48
2022/09/30 05:05:32;;;;;;;6.30;4.47;;;;;;;15.22;100.00;99217.30;1709058;82;21904;-48
2022/09/30 05:08:02;;;;;;;5.12;4.75;;;;;;;15.26;100.00;99215.20;1711920;83;21603;-46
2022/09/30 05:10:29;;;;;;;4.85;4.50;;;;;;;15.27;100.00;99216.45;1703522;83;21854;-46
2022/09/30 05:12:56;;;;;;;4.97;4.78;;;;;;;15.28;100.00;99216.83;1756073;80;21580;-46
2022/09/30 05:15:23;;;;;;;4.35;3.65;;;;;;;15.31;100.00;99221.16;1756801;79;21538;-46
2022/09/30 05:17:50;;;;;;;4.37;4.05;;;;;;;15.32;100.00;99222.38;1756300;80;21053;-47
2022/09/30 05:20:17;;;;;;;4.75;4.25;;;;;;;15.36;100.00;99232.02;1747384;80;21057;-48
2022/09/30 05:22:44;;;;;;;5.60;5.37;;;;;;;15.39;100.00;99230.94;1760578;79;21895;-46
2022/09/30 05:25:10;;;;;;;4.65;4.35;;;;;;;15.43;100.00;99236.48;1755525;80;21050;-46
2022/09/30 05:27:37;;;;;;;5.15;4.85;;;;;;;15.46;100.00;99239.84;1754650;80;21074;-45
2022/09/30 05:30:05;;;;;;;5.47;5.08;;;;;;;15.50;100.00;99248.10;1754217;80;21614;-51
2022/09/30 05:32:32;;;;;;;4.90;4.70;;;;;;;15.53;100.00;99257.86;1760549;79;21045;-48
2022/09/30 05:34:58;;;;;;;5.75;5.08;;;;;;;15.57;100.00;99263.44;1752808;80;21943;-49
2022/09/30 05:37:25;;;;;;;5.87;5.42;;;;;;;15.59;100.00;99259.26;1754280;79;22140;-46
2022/09/30 05:39:51;;;;;;;5.00;4.75;;;;;;;15.62;100.00;99263.98;1749857;80;21199;-49
2022/09/30 05:42:19;;;;;;;4.97;4.67;;;;;;;15.64;100.00;99267.45;1753173;80;21049;-47
2022/09/30 05:44:46;;;;;;;4.95;4.60;;;;;;;15.66;100.00;99265.94;1749262;80;21043;-48
2022/09/30 05:47:12;;;;;;;5.90;5.42;;;;;;;15.67;100.00;99263.12;1749336;79;21780;-49
2022/09/30 05:49:40;;;;;;;6.12;5.72;;;;;;;15.70;100.00;99264.25;1755946;79;21502;-48
2022/09/30 05:52:06;;;;;;;4.75;4.45;;;;;;;15.75;100.00;99273.38;1750504;80;21022;-47
2022/09/30 05:54:33;;;;;;;6.28;5.87;;;;;;;15.78;100.00;99276.73;1752647;80;21054;-47
2022/09/30 05:56:59;;;;;;;6.15;5.78;;;;;;;15.81;100.00;99273.80;1754085;80;21729;-47
2022/09/30 05:59:26;;;;;;;7.72;6.55;;;;;;;15.84;100.00;99268.60;1753656;80;21941;-49
2022/09/30 06:01:52;;;;;;;8.90;7.12;;;;;;;15.87;100.00;99277.87;1751987;79;21045;-50
2022/09/30 06:04:20;;;;;;;6.90;6.40;;;;;;;15.89;100.00;99288.12;1755740;79;21076;-46
2022/09/30 06:06:50;;;;;;;7.92;7.22;;;;;;;15.92;100.00;99282.93;1758883;79;21085;-48
2022/09/30 06:09:16;;;;;;;7.92;7.40;;;;;;;15.95;100.00;99290.84;1759967;79;21116;-48
2022/09/30 06:11:44;;;;;;;8.98;8.18;;;;;;;15.97;100.00;99295.19;1761115;79;20960;-47
2022/09/30 06:14:10;;;;;;;8.85;8.15;;;;;;;15.99;100.00;99298.63;1760840;79;21351;-47
2022/09/30 06:16:36;;;;;;;9.53;8.58;;;;;;;16.02;100.00;99305.67;1755493;79;21041;-47
2022/09/30 06:19:03;;;;;;;7.83;7.25;;;;;;;16.05;100.00;99300.88;1762508;79;22183;-49
2022/09/30 06:21:29;;;;;;;9.30;8.50;;;;;;;16.09;100.00;99299.64;1759820;80;21067;-47
2022/09/30 06:23:56;;;;;;;10.25;9.30;;;;;;;16.11;100.00;99295.45;1764675;79;22574;-48
2022/09/30 06:26:24;;;;;;;13.00;11.65;;;;;;;16.13;100.00;99298.92;1758872;80;21720;-48
2022/09/30 06:28:52;;;;;;;10.88;10.05;;;;;;;16.14;100.00;99297.45;1759413;79;21060;-47
2022/09/30 06:31:18;;;;;;;11.25;10.15;;;;;;;16.18;100.00;99298.05;1758965;79;21140;-49
2022/09/30 06:33:45;;;;;;;9.88;9.15;;;;;;;16.22;100.00;99299.07;1759462;79;21105;-50
2022/09/30 06:36:12;;;;;;;8.50;7.80;;;;;;;16.24;100.00;99301.18;1758484;80;21814;-48
2022/09/30 06:38:38;;;;;;;8.35;7.78;;;;;;;16.27;100.00;99303.64;1759769;79;21041;-48
2022/09/30 06:41:05;;;;;;;9.48;8.58;;;;;;;16.31;100.00;99311.06;1764130;79;21056;-49
2022/09/30 06:43:32;;;;;;;10.70;9.80;;;;;;;16.35;100.00;99309.82;1759605;79;21176;-47
2022/09/30 06:46:00;;;;;;;9.68;8.98;;;;;;;16.38;100.00;99307.36;1755677;79;21080;-51
2022/09/30 06:48:28;;;;;;;10.58;9.60;;;;;;;16.43;100.00;99309.20;1756309;79;21840;-47
2022/09/30 06:50:57;;;;;;;9.75;8.80;;;;;;;16.46;100.00;99309.84;1767269;79;21431;-47
2022/09/30 06:53:24;;;;;;;9.13;8.45;;;;;;;16.51;100.00;99311.69;1767074;79;21023;-47
2022/09/30 06:55:56;;;;;;;9.50;8.58;;;;;;;16.55;100.00;99314.55;1764516;79;21009;-49
2022/09/30 06:58:23;;;;;;;10.90;9.45;;;;;;;16.57;100.00;99313.94;1766438;79;21053;-47
2022/09/30 07:01:04;;;;;;;10.20;9.40;;;;;;;16.61;100.00;99311.86;1765253;79;21924;-46
2022/09/30 07:03:34;;;;;;;10.65;9.55;;;;;;;16.64;100.00;99314.34;1766599;79;21048;-47
2022/09/30 07:06:03;;;;;;;10.28;9.35;;;;;;;16.70;100.00;99321.13;1767926;78;20977;-48
2022/09/30 07:08:30;;;;;;;12.28;11.18;;;;;;;16.75;100.00;99318.92;1772972;78;21784;-48
2022/09/30 07:10:58;;;;;;;10.25;9.35;;;;;;;16.79;100.00;99323.11;1768566;79;21495;-47
2022/09/30 07:13:25;;;;;;;10.38;9.58;;;;;;;16.83;100.00;99327.33;1772703;78;22039;-47
2022/09/30 07:15:53;;;;;;;11.93;9.50;;;;;;;16.85;100.00;99330.27;1770470;78;21103;-47
2022/09/30 07:18:21;;;;;;;10.50;9.55;;;;;;;16.88;100.00;99335.96;1764997;80;21077;-47
2022/09/30 07:20:53;;;;;;;10.80;9.90;;;;;;;16.91;100.00;99338.45;1767941;78;21064;-47
2022/09/30 07:23:20;;;;;;;9.80;8.83;;;;;;;16.96;100.00;99338.44;1768337;79;21152;-47
2022/09/30 07:25:57;;;;;;;10.38;9.58;;;;;;;17.01;100.00;99341.62;1769664;78;22011;-48
2022/09/30 07:28:26;;;;;;;11.45;9.38;;;;;;;17.08;100.00;99347.46;1767534;79;21048;-48
2022/09/30 07:30:57;;;;;;;16.40;10.95;;;;;;;17.17;100.00;99353.52;1766494;79;21070;-48
2022/09/30 07:33:25;;;;;;;10.75;9.70;;;;;;;17.27;100.00;99355.83;1766160;80;21060;-48
2022/09/30 07:35:52;;;;;;;10.72;9.75;;;;;;;17.38;100.00;99353.09;1766798;79;21059;-48
2022/09/30 07:38:20;;;;;;;10.60;9.60;;;;;;;17.46;100.00;99350.23;1764937;78;21932;-47
2022/09/30 07:40:55;;;;;;;10.20;9.30;;;;;;;17.55;100.00;99353.55;1764348;79;21108;-47
2022/09/30 07:43:22;;;;;;;10.43;9.50;;;;;;;17.61;100.00;99361.20;1759750;79;21056;-47
2022/09/30 07:45:48;;;;;;;10.50;9.55;;;;;;;17.67;100.00;99359.38;1770309;80;21072;-50
2022/09/30 07:51:00;;;;;;;10.88;9.95;;;;;;;17.78;100.00;99368.86;1767941;80;21862;-47
2022/09/30 07:53:26;;;;;;;10.63;9.63;;;;;;;17.82;100.00;99377.15;1764588;80;21127;-50
2022/09/30 07:55:53;;;;;;;13.08;10.40;;;;;;;17.86;100.00;99378.63;1765055;80;21060;-48
2022/09/30 07:58:19;;;;;;;10.45;9.40;;;;;;;17.90;100.00;99380.58;1761854;80;21709;-49
2022/09/30 08:00:51;;;;;;;10.53;9.43;;;;;;;17.94;100.00;99386.16;1764018;80;21228;-49
2022/09/30 08:03:15;;;;;;;10.35;8.88;;;;;;;17.95;100.00;99383.80;1764748;79;21855;-48
2022/09/30 08:05:47;;;;;;;11.80;9.85;;;;;;;17.97;100.00;99390.83;1754896;80;21069;-48
2022/09/30 08:08:14;;;;;;;12.05;10.98;;;;;;;18.00;100.00;99389.72;1761823;79;21091;-49
2022/09/30 08:10:41;;;;;;;10.40;9.23;;;;;;;17.99;100.00;99395.66;1756645;80;21085;-49
2022/09/30 08:13:09;;;;;;;10.95;9.03;;;;;;;17.98;100.00;99385.75;1761353;79;21122;-47
2022/09/30 08:15:35;;;;;;;11.93;10.48;;;;;;;18.00;100.00;99395.16;1762223;79;21323;-51
2022/09/30 08:18:01;;;;;;;11.83;10.28;;;;;;;18.01;100.00;99386.00;1763656;79;21152;-51
2022/09/30 08:20:28;;;;;;;11.22;10.32;;;;;;;18.03;100.00;99392.19;1758997;80;21025;-50
2022/09/30 08:22:55;;;;;;;17.60;15.80;;;;;;;18.06;99.98;99395.99;1763289;79;21393;-51
2022/09/30 08:25:22;;;;;;;16.95;15.40;;;;;;;18.08;99.94;99396.24;1762610;80;21033;-48
2022/09/30 08:27:48;;;;;;;13.05;11.30;;;;;;;18.10;99.90;99396.98;1762833;79;22567;-50
2022/09/30 08:30:15;;;;;;;31.97;28.92;;;;;;;18.15;99.85;99399.30;1764345;79;21025;-48
2022/09/30 08:32:41;;;;;;;17.00;15.25;;;;;;;18.19;99.83;99400.78;1759260;80;21004;-47
2022/09/30 08:35:08;;;;;;;16.45;13.90;;;;;;;18.25;99.73;99404.84;1755181;79;21121;-48
2022/09/30 08:37:34;;;;;;;16.32;14.83;;;;;;;18.28;99.67;99402.73;1757525;80;21834;-50
2022/09/30 08:40:01;;;;;;;18.48;16.17;;;;;;;18.34;99.59;99403.56;1756819;79;21887;-50
2022/09/30 08:42:52;;;;;;;16.93;15.32;;;;;;;18.42;99.48;99409.70;1760652;79;21043;-48
2022/09/30 08:45:34;;;;;;;23.30;20.70;;;;;;;18.50;99.39;99416.23;1757901;80;21058;-48
2022/09/30 08:48:24;;;;;;;24.10;19.95;;;;;;;18.57;99.24;99413.86;1758545;79;21108;-47
2022/09/30 08:51:05;;;;;;;19.65;17.65;;;;;;;18.62;99.14;99412.98;1756780;79;21752;-47
2022/09/30 08:53:39;;;;;;;19.35;17.32;;;;;;;18.68;99.06;99418.39;1760355;80;22891;-47
2022/09/30 08:56:05;;;;;;;;;;;;;;;18.75;98.97;99423.17;1764414;79;21220;-47
2022/09/30 08:58:38;;;;;;;14.78;13.38;;;;;;;18.83;98.80;99411.10;1766440;80;20628;-46
2022/09/30 09:01:29;;;;;;;14.63;13.22;;;;;;;18.94;98.69;99414.26;1761856;79;21084;-45
2022/09/30 09:03:58;;;;;;;13.40;11.28;;;;;;;19.06;98.56;99417.75;1765472;80;21047;-47
2022/09/30 09:06:53;;;;;;;14.60;12.23;;;;;;;19.18;98.40;99416.67;1755156;79;21909;-49
2022/09/30 09:09:54;;;;;;;14.78;12.90;;;;;;;19.24;98.32;99417.48;1723269;80;21027;-47
2022/09/30 09:12:52;;;;;;;14.38;13.08;;;;;;;19.27;98.27;99424.91;1760445;79;21096;-46
2022/09/30 09:15:51;;;;;;;15.35;13.32;;;;;;;19.29;98.25;99430.23;1753841;79;21104;-47
2022/09/30 09:18:53;;;;;;;11.68;10.53;;;;;;;19.29;98.21;99424.78;1761127;80;21115;-49
2022/09/30 09:21:38;;;;;;;11.30;10.23;;;;;;;19.29;98.20;99427.50;1759540;79;21956;-49
2022/09/30 09:24:05;;;;;;;9.93;9.15;;;;;;;19.33;98.21;99430.80;1761195;79;21105;-45
2022/09/30 09:26:35;;;;;;;12.23;9.45;;;;;;;19.33;98.20;99433.03;1760172;79;21485;-46
2022/09/30 09:29:37;;;;;;;12.05;8.28;;;;;;;19.34;98.19;99432.03;1757437;80;21035;-46
2022/09/30 09:32:16;;;;;;;8.38;7.50;;;;;;;19.37;98.16;99435.00;1755889;79;21042;-49
2022/09/30 09:34:43;;;;;;;14.00;10.50;;;;;;;19.41;98.11;99427.75;1758585;79;21864;-47
2022/09/30 09:38:23;;;;;;;8.90;6.92;;;;;;;19.47;98.03;99427.26;1761543;79;21010;-48
2022/09/30 09:40:08;;;;;;;9.90;9.00;;;;;;;19.55;97.97;99424.70;1757373;79;21029;-46
2022/09/30 09:43:00;;;;;;;15.68;14.38;;;;;;;19.60;97.91;99421.54;1758321;79;21019;-49
2022/09/30 09:45:53;;;;;;;10.05;8.40;;;;;;;19.66;97.84;99423.70;1761068;79;21006;-48
2022/09/30 09:48:20;;;;;;;9.15;7.33;;;;;;;19.71;97.78;99435.09;1760936;79;21785;-49
2022/09/30 09:51:04;;;;;;;7.35;6.62;;;;;;;19.77;97.78;99430.93;1761136;79;21105;-46
2022/09/30 09:53:57;;;;;;;9.30;6.30;;;;;;;19.79;97.78;99428.43;1760517;80;20955;-46
2022/09/30 09:56:28;;;;;;;6.67;5.90;;;;;;;19.82;97.73;99431.39;1759651;79;20983;-47
2022/09/30 09:59:15;;;;;;;11.22;6.72;;;;;;;19.84;97.71;99429.36;1755925;79;20991;-49
2022/09/30 10:01:50;;;;;;;8.43;5.70;;;;;;;19.86;97.70;99421.89;1757114;79;21801;-46
2022/09/30 10:04:28;;;;;;;7.42;4.20;;;;;;;19.87;97.69;99427.72;1760841;79;21053;-49
2022/09/30 10:07:03;;;;;;;6.00;5.50;;;;;;;19.88;97.67;99430.82;1763775;80;21033;-49
2022/09/30 10:09:33;;;;;;;7.10;5.45;;;;;;;19.93;97.64;99432.61;1765937;79;21195;-46
2022/09/30 10:12:12;;;;;;;6.37;5.80;;;;;;;19.96;97.61;99432.34;1766289;80;21060;-46
2022/09/30 10:14:56;;;;;;;7.37;6.40;;;;;;;19.99;97.59;99432.04;1763257;79;21495;-47
2022/09/30 10:17:33;;;;;;;6.15;5.65;;;;;;;20.03;97.54;99438.97;1758591;80;21497;-46
2022/09/30 10:20:18;;;;;;;9.08;8.05;;;;;;;20.06;97.51;99441.42;1767767;78;21046;-47
2022/09/30 10:22:46;;;;;;;10.40;6.97;;;;;;;20.08;97.48;99444.86;1764823;80;21057;-48
2022/09/30 10:25:22;;;;;;;9.18;5.60;;;;;;;20.10;97.46;99442.85;1727955;82;21092;-46
2022/09/30 10:27:58;;;;;;;4.95;4.53;;;;;;;20.12;97.44;99447.69;1732298;82;21772;-47
2022/09/30 10:30:44;;;;;;;6.47;5.25;;;;;;;20.13;97.43;99445.31;1726676;82;21353;-47
2022/09/30 10:33:42;;;;;;;8.25;4.00;;;;;;;20.15;97.42;99444.67;1730841;82;21100;-48
2022/09/30 10:36:18;;;;;;;5.33;4.33;;;;;;;20.16;97.41;99447.73;1729508;82;21092;-48
2022/09/30 10:39:01;;;;;;;4.90;4.08;;;;;;;20.18;97.38;99447.11;1726261;80;21506;-47
2022/09/30 10:41:29;;;;;;;8.85;4.10;;;;;;;20.21;97.37;99448.70;1715135;82;21827;-48
2022/09/30 10:43:59;;;;;;;4.15;3.80;;;;;;;20.23;97.35;99447.56;1713816;82;21389;-47
2022/09/30 10:46:35;;;;;;;5.30;4.00;;;;;;;20.25;97.32;99455.59;1713334;82;21098;-49
2022/09/30 10:49:30;;;;;;;4.37;3.00;;;;;;;20.26;97.32;99449.98;1718542;82;21746;-46
2022/09/30 10:51:57;;;;;;;5.62;2.65;;;;;;;20.29;97.29;99449.72;1673730;82;21094;-46
2022/09/30 10:54:52;;;;;;;3.98;3.27;;;;;;;20.34;97.25;99446.07;1728858;80;21926;-46
2022/09/30 10:57:36;;;;;;;2.67;2.15;;;;;;;20.38;97.21;99447.53;1714628;82;21113;-47
2022/09/30 11:00:14;;;;;;;5.17;3.10;;;;;;;20.44;97.15;99452.91;1713725;82;21134;-46
2022/09/30 11:03:13;;;;;;;2.22;2.00;;;;;;;20.49;97.13;99447.03;1713569;82;21380;-46
2022/09/30 11:05:42;;;;;;;3.58;3.27;;;;;;;20.52;97.08;99458.52;1717054;82;21054;-45
2022/09/30 11:08:37;;;;;;;6.35;3.87;;;;;;;20.58;97.02;99459.34;1689285;82;21851;-47
2022/09/30 11:11:23;;;;;;;3.20;2.85;;;;;;;20.62;97.03;99458.52;1752185;79;21053;-46
2022/09/30 11:14:07;;;;;;;3.98;3.40;;;;;;;20.69;96.96;99465.14;1751225;80;21069;-48
2022/09/30 11:16:55;;;;;;;3.23;2.90;;;;;;;20.72;96.94;99465.72;1756099;79;21062;-49
2022/09/30 11:19:32;;;;;;;2.72;2.20;;;;;;;20.74;96.91;99466.45;1751408;80;21073;-49
2022/09/30 11:22:21;;;;;;;2.30;2.10;;;;;;;20.80;96.85;99457.29;1755940;79;22508;-46
2022/09/30 11:24:49;;;;;;;5.65;3.52;;;;;;;20.85;96.83;99464.04;1753385;79;21061;-48
2022/09/30 11:27:52;;;;;;;3.20;2.85;;;;;;;20.93;96.78;99465.53;1750971;79;21077;-49
2022/09/30 11:30:43;;;;;;;2.95;2.65;;;;;;;20.99;96.72;99464.97;1752108;79;21065;-46
2022/09/30 11:33:36;;;;;;;3.35;3.15;;;;;;;21.06;96.67;99469.34;1753237;80;21089;-46
2022/09/30 11:36:29;;;;;;;4.85;3.02;;;;;;;21.08;96.64;99473.67;1749225;80;21890;-46
2022/09/30 11:39:01;;;;;;;3.08;2.87;;;;;;;21.11;96.63;99478.83;1748692;80;21547;-48
2022/09/30 11:41:38;;;;;;;3.25;3.00;;;;;;;21.14;96.61;99484.52;1754369;79;21089;-46
2022/09/30 11:44:33;;;;;;;2.47;2.10;;;;;;;21.16;96.59;99489.35;1747871;80;21116;-48
2022/09/30 11:47:24;;;;;;;;;;;;;;;21.18;96.58;99477.76;1749098;79;21036;-46
2022/09/30 11:50:26;;;;;;;2.47;2.27;;;;;;;21.23;96.53;99481.44;1750232;80;21838;-48
2022/09/30 11:53:26;;;;;;;4.37;2.80;;;;;;;21.29;96.50;99480.84;1749940;79;21160;-47
2022/09/30 11:56:09;;;;;;;3.27;2.98;;;;;;;21.38;96.45;99481.31;1755113;79;22163;-46
2022/09/30 11:58:40;;;;;;;2.33;2.13;;;;;;;21.45;96.40;99482.44;1753616;80;21261;-46
2022/09/30 12:01:21;;;;;;;3.25;1.95;;;;;;;21.50;96.36;99482.87;1757654;79;21777;-45
2022/09/30 12:04:02;;;;;;;5.58;2.05;;;;;;;21.54;96.35;99487.02;1756211;79;23401;-49
2022/09/30 12:06:42;;;;;;;2.98;2.77;;;;;;;21.55;96.35;99486.02;1746025;80;21063;-47
2022/09/30 12:09:23;;;;;;;4.83;2.70;;;;;;;21.56;96.35;99484.14;1753552;80;21128;-46
2022/09/30 12:12:02;;;;;;;4.67;2.50;;;;;;;21.56;96.34;99488.25;1751067;79;21138;-46